Time;durP1;ratioP1;P1;durP2;ratioP2;P2;SDS_P1;SDS_P2;PMS_P1;PMS_P2;Temp;Humidity;BMP_temperature;BMP_pressure;BME280_temperature;BME280_humidity;BME280_pressure;Samples;Min_cycle;Max_cycle;Signal;HPM_P1;HPM_P2
2023/12/09 00:02:11;;;;;;;;;7.50;5.00;;;;;-146.67;79.54;75849.72;5080870;27;61757;-71
2023/12/09 00:04:36;;;;;;;;;3.00;2.00;;;;;-146.67;79.72;75847.75;5082452;27;61805;-72
2023/12/09 00:07:01;;;;;;;;;6.00;4.00;;;;;-146.67;79.94;75851.72;5080245;28;64874;-71
2023/12/09 00:09:27;;;;;;;;;5.50;1.50;;;;;-146.67;79.83;75853.72;5082651;28;61730;-71
2023/12/09 00:11:52;;;;;;;;;3.00;2.25;;;;;-146.67;79.77;75843.75;5085923;27;62132;-71
2023/12/09 00:14:17;;;;;;;;;7.25;5.00;;;;;-146.67;79.54;75849.72;5085482;27;61660;-71
2023/12/09 00:16:43;;;;;;;;;7.75;3.00;;;;;-146.67;79.88;75845.75;5083831;28;63396;-71
2023/12/09 00:19:09;;;;;;;;;5.00;3.75;;;;;-146.67;79.78;75849.72;5084991;27;61853;-71
2023/12/09 00:21:34;;;;;;;;;6.50;3.75;;;;;-146.67;79.88;75847.75;5084554;27;61903;-71
2023/12/09 00:24:00;;;;;;;;;4.00;3.50;;;;;-146.67;79.54;75851.72;5085634;27;61994;-71
2023/12/09 00:26:25;;;;;;;;;7.25;2.75;;;;;-146.67;79.51;75851.72;5084867;27;61803;-71
2023/12/09 00:28:50;;;;;;;;;4.50;2.50;;;;;-146.67;79.66;75857.72;5083779;28;61948;-71
2023/12/09 00:31:16;;;;;;;;;6.50;3.75;;;;;-146.67;79.59;75859.72;5085459;27;62013;-71
2023/12/09 00:33:41;;;;;;;;;8.75;4.50;;;;;-146.67;79.36;75863.72;5085870;27;61954;-71
2023/12/09 00:36:07;;;;;;;;;2.75;2.75;;;;;-146.67;79.70;75869.72;5084675;27;61747;-71
2023/12/09 00:38:33;;;;;;;;;8.50;3.00;;;;;-146.67;79.52;75877.69;5085392;27;61758;-71
2023/12/09 00:40:58;;;;;;;;;7.00;4.75;;;;;-146.67;79.46;75865.72;5084187;27;62164;-71
2023/12/09 00:43:23;;;;;;;;;9.75;5.50;;;;;-146.67;79.35;75869.72;5083163;27;61925;-72
2023/12/09 00:45:49;;;;;;;;;6.50;3.00;;;;;-146.67;79.44;75865.72;5097161;27;63018;-71
2023/12/09 00:48:14;;;;;;;;;6.50;3.75;;;;;-146.67;79.20;75869.72;5104210;27;61797;-71
2023/12/09 00:50:39;;;;;;;;;5.50;4.50;;;;;-146.67;79.19;75875.69;5105185;27;61972;-71
2023/12/09 00:53:05;;;;;;;;;8.75;4.00;;;;;-146.67;79.28;75883.69;5106157;27;61781;-71
2023/12/09 00:55:30;;;;;;;;;5.50;2.00;;;;;-146.67;79.14;75881.69;5104865;27;62008;-72
2023/12/09 00:57:56;;;;;;;;;10.00;5.00;;;;;-146.67;79.26;75879.69;5105410;27;62481;-72
2023/12/09 01:00:21;;;;;;;;;3.50;2.75;;;;;-146.67;79.01;75879.69;5105639;27;61939;-71
2023/12/09 01:02:46;;;;;;;;;3.75;3.75;;;;;-146.67;79.09;75877.69;5105935;27;61711;-71
2023/12/09 01:05:12;;;;;;;;;4.00;2.00;;;;;-146.67;79.16;75877.69;5108357;27;63360;-71
2023/12/09 01:07:37;;;;;;;;;9.00;3.25;;;;;-146.67;79.09;75873.69;5126032;27;62669;-71
2023/12/09 01:10:03;;;;;;;;;5.00;2.50;;;;;-146.67;79.34;75875.69;5124071;27;62006;-71
2023/12/09 01:12:30;;;;;;;;;6.00;4.25;;;;;-146.67;79.19;75875.69;5081945;28;62082;-71
2023/12/09 01:14:55;;;;;;;;;10.50;6.50;;;;;-146.67;79.15;75873.69;5083181;27;61876;-71
2023/12/09 01:17:21;;;;;;;;;5.50;3.25;;;;;-146.67;79.02;75881.69;5083957;27;61817;-71
2023/12/09 01:19:46;;;;;;;;;2.00;2.00;;;;;-146.67;79.00;75879.69;5083912;27;61808;-71
2023/12/09 01:22:12;;;;;;;;;6.25;3.00;;;;;-146.67;79.13;75879.69;5084204;28;61910;-71
2023/12/09 01:24:38;;;;;;;;;5.50;5.00;;;;;-146.67;79.98;75913.66;5083526;27;61901;-71
2023/12/09 01:27:03;;;;;;;;;7.25;3.00;;;;;-146.67;80.82;75921.63;5105259;27;62053;-71
2023/12/09 01:29:29;;;;;;;;;4.00;3.00;;;;;-146.67;80.80;75897.66;5124077;27;61982;-71
2023/12/09 01:31:54;;;;;;;;;2.75;2.75;;;;;-146.67;79.82;75881.69;5115022;27;61813;-71
2023/12/09 01:34:19;;;;;;;;;6.00;4.75;;;;;-146.67;79.51;75871.69;5103088;27;63742;-71
2023/12/09 01:36:45;;;;;;;;;6.00;4.75;;;;;-146.67;79.31;75871.69;5104915;27;62271;-71
2023/12/09 01:39:11;;;;;;;;;9.25;3.25;;;;;-146.67;78.86;75871.69;5104883;27;61800;-71
2023/12/09 01:41:37;;;;;;;;;5.50;3.00;;;;;-146.67;79.59;75877.69;5104642;27;61831;-71
2023/12/09 01:44:03;;;;;;;;;4.75;4.25;;;;;-146.67;80.33;75901.66;5104235;27;62488;-71
2023/12/09 01:46:28;;;;;;;;;6.25;2.00;;;;;-146.67;81.12;75921.63;5104486;27;61801;-71
2023/12/09 01:48:54;;;;;;;;;7.50;3.00;;;;;-146.67;80.16;75871.69;5104074;27;62003;-71
2023/12/09 01:51:20;;;;;;;;;3.25;3.25;;;;;-146.67;79.98;75869.72;5104974;27;61843;-71
2023/12/09 01:53:45;;;;;;;;;5.50;4.75;;;;;-146.67;79.70;75863.72;5102836;27;64731;-71
2023/12/09 01:56:14;;;;;;;;;10.25;6.00;;;;;-146.67;79.38;75859.72;5102844;27;61762;-71
2023/12/09 01:58:40;;;;;;;;;11.00;5.75;;;;;-146.67;79.14;75859.72;5104289;27;61776;-71
2023/12/09 02:01:06;;;;;;;;;8.50;4.50;;;;;-146.67;79.00;75851.72;5104959;27;61723;-71
2023/12/09 02:03:33;;;;;;;;;3.50;3.50;;;;;-146.67;78.98;75839.75;5103741;27;62080;-72
2023/12/09 02:05:58;;;;;;;;;8.75;4.00;;;;;-146.67;78.86;75835.75;5103059;27;61888;-72
2023/12/09 02:08:24;;;;;;;;;6.25;6.00;;;;;-146.67;78.22;75835.75;5103487;27;62235;-71
2023/12/09 02:11:08;;;;;;;;;6.25;2.50;;;;;-146.67;78.34;75817.78;5095542;27;61974;-71
2023/12/09 02:13:56;;;;;;;;;3.00;3.00;;;;;-146.67;78.22;75805.81;5083288;27;61969;-71
2023/12/09 02:16:28;;;;;;;;;11.00;6.00;;;;;-146.67;77.96;75801.81;5084119;28;61964;-71
2023/12/09 02:18:57;;;;;;;;;8.25;5.25;;;;;-146.67;78.08;75799.81;5083365;27;61897;-72
2023/12/09 02:21:22;;;;;;;;;6.00;3.50;;;;;-146.67;77.81;75795.81;5082605;28;61822;-71
2023/12/09 02:23:47;;;;;;;;;6.00;3.75;;;;;-146.67;77.97;75793.81;5083015;27;61751;-71
2023/12/09 02:26:25;;;;;;;;;6.25;6.25;;;;;-146.67;77.96;75795.81;5083621;27;61858;-71
2023/12/09 02:28:56;;;;;;;;;6.00;5.00;;;;;-146.67;78.33;75783.84;5083572;27;62111;-71
2023/12/09 02:31:27;;;;;;;;;11.00;4.50;;;;;-146.67;78.87;75787.81;5083864;27;61994;-71
2023/12/09 02:33:53;;;;;;;;;9.50;6.50;;;;;-146.67;79.00;75781.84;5087859;28;64167;-71
2023/12/09 02:36:21;;;;;;;;;11.50;6.00;;;;;-146.67;79.17;75785.81;5133699;27;61257;-71
2023/12/09 02:38:48;;;;;;;;;5.00;3.00;;;;;-146.67;79.34;75783.84;5095188;27;61291;-71
2023/12/09 02:41:15;;;;;;;;;6.00;3.25;;;;;-146.67;78.57;75765.84;5082508;28;61777;-72
2023/12/09 02:43:44;;;;;;;;;6.50;3.50;;;;;-146.67;78.36;75741.91;5081643;27;63493;-71
2023/12/09 02:46:13;;;;;;;;;13.00;3.50;;;;;-146.67;77.87;75735.91;5098847;27;61951;-72
2023/12/09 02:48:39;;;;;;;;;8.00;6.00;;;;;-146.67;77.59;75737.91;5104066;27;61998;-71
2023/12/09 02:51:06;;;;;;;;;7.75;5.50;;;;;-146.67;77.51;75739.91;5102192;27;62288;-72
2023/12/09 02:53:31;;;;;;;;;6.75;6.00;;;;;-146.67;77.27;75729.91;5102979;27;61952;-72
2023/12/09 02:55:57;;;;;;;;;7.00;4.00;;;;;-146.67;77.58;75743.88;5101973;27;62080;-72
2023/12/09 02:58:22;;;;;;;;;4.25;4.25;;;;;-146.67;77.95;75735.91;5104426;27;61845;-72
2023/12/09 03:00:47;;;;;;;;;4.00;4.00;;;;;-146.67;77.98;75735.91;5103799;27;62096;-71
2023/12/09 03:03:13;;;;;;;;;5.25;5.00;;;;;-146.67;78.65;75743.88;5102868;27;61860;-72
2023/12/09 03:05:38;;;;;;;;;11.75;9.00;;;;;-146.67;78.31;75723.91;5102424;27;61892;-71
2023/12/09 03:08:03;;;;;;;;;10.25;2.75;;;;;-146.67;77.32;75703.94;5101808;27;62037;-72
2023/12/09 03:10:29;;;;;;;;;7.00;5.75;;;;;-146.67;77.82;75707.94;5103675;27;61911;-72
2023/12/09 03:12:54;;;;;;;;;5.75;4.00;;;;;-146.67;77.64;75713.94;5102755;27;62932;-71
2023/12/09 03:15:19;;;;;;;;;7.75;6.00;;;;;-146.67;78.61;75719.94;5103514;27;61985;-71
2023/12/09 03:17:45;;;;;;;;;4.50;4.50;;;;;-146.67;77.79;75685.97;5102240;27;62046;-72
2023/12/09 03:20:10;;;;;;;;;6.00;4.50;;;;;-146.67;77.57;75685.97;5103013;27;62124;-71
2023/12/09 03:22:36;;;;;;;;;12.75;8.25;;;;;-146.67;78.92;75709.94;5102370;27;62234;-72
2023/12/09 03:25:01;;;;;;;;;7.50;4.50;;;;;-146.67;78.14;75683.97;5101762;27;61940;-72
2023/12/09 03:27:27;;;;;;;;;8.00;7.50;;;;;-146.67;77.67;75670.00;5102206;27;61906;-71
2023/12/09 03:29:52;;;;;;;;;9.00;7.50;;;;;-146.67;77.70;75652.03;5103208;27;61734;-71
2023/12/09 03:32:17;;;;;;;;;6.25;5.50;;;;;-146.67;77.36;75654.03;5101176;27;63931;-71
2023/12/09 03:34:44;;;;;;;;;10.25;5.00;;;;;-146.67;77.11;75634.06;5101923;27;62122;-71
2023/12/09 03:37:09;;;;;;;;;8.00;4.75;;;;;-146.67;76.93;75640.03;5101488;27;61943;-71
2023/12/09 03:39:34;;;;;;;;;12.75;7.25;;;;;-146.67;77.11;75650.03;5103287;27;61624;-71
2023/12/09 03:42:00;;;;;;;;;7.25;6.75;;;;;-146.67;77.07;75650.03;5102258;27;62074;-71
2023/12/09 03:44:25;;;;;;;;;7.50;6.50;;;;;-146.67;76.69;75638.03;5102072;27;61860;-72
2023/12/09 03:46:51;;;;;;;;;4.25;3.50;;;;;-146.67;76.87;75618.06;5103241;27;62351;-71
2023/12/09 03:49:16;;;;;;;;;4.50;4.50;;;;;-146.67;76.89;75618.06;5102517;27;61680;-72
2023/12/09 03:51:41;;;;;;;;;7.00;6.00;;;;;-146.67;77.19;75614.09;5101999;27;61984;-72
2023/12/09 03:54:07;;;;;;;;;12.50;4.25;;;;;-146.67;76.85;75610.09;5102564;27;61734;-71
2023/12/09 03:56:32;;;;;;;;;8.25;6.25;;;;;-146.67;76.95;75610.09;5103060;27;62346;-72
2023/12/09 03:58:57;;;;;;;;;9.00;4.00;;;;;-146.67;77.16;75608.09;5103084;27;62018;-71
2023/12/09 04:01:24;;;;;;;;;6.75;6.00;;;;;-146.67;76.99;75616.09;5090573;27;62804;-71
2023/12/09 04:03:50;;;;;;;;;7.50;4.00;;;;;-146.67;77.35;75606.09;5082385;27;61884;-71
2023/12/09 04:06:15;;;;;;;;;13.75;8.50;;;;;-146.67;77.40;75594.13;5081784;27;61846;-72
2023/12/09 04:08:41;;;;;;;;;11.50;6.00;;;;;-146.67;77.30;75594.13;5082619;27;61961;-71
2023/12/09 04:11:06;;;;;;;;;12.50;3.75;;;;;-146.67;78.01;75618.06;5081458;27;62916;-71
2023/12/09 04:13:32;;;;;;;;;10.50;5.50;;;;;-146.67;77.50;75590.13;5082419;27;61794;-72
2023/12/09 04:15:58;;;;;;;;;6.75;6.25;;;;;-146.67;77.36;75584.13;5082458;27;61758;-72
2023/12/09 04:18:23;;;;;;;;;11.50;6.50;;;;;-146.67;77.28;75580.13;5085509;27;61825;-72
2023/12/09 04:20:49;;;;;;;;;7.50;7.00;;;;;-146.67;77.02;75576.13;5101384;27;61797;-71
2023/12/09 04:23:15;;;;;;;;;11.00;7.50;;;;;-146.67;76.96;75580.13;5102230;27;61890;-72
2023/12/09 04:25:40;;;;;;;;;6.50;6.50;;;;;-146.67;77.15;75570.16;5101163;27;62069;-72
2023/12/09 04:28:06;;;;;;;;;9.00;5.00;;;;;-146.67;76.94;75576.13;5102515;27;61895;-71
2023/12/09 04:30:31;;;;;;;;;11.00;7.00;;;;;-146.67;77.29;75580.13;5097821;27;62148;-71
2023/12/09 04:32:56;;;;;;;;;9.75;5.25;;;;;-146.67;77.29;75570.16;5082092;27;62042;-71
2023/12/09 04:35:22;;;;;;;;;7.75;6.75;;;;;-146.67;76.98;75558.16;5081486;27;61951;-71
2023/12/09 04:37:47;;;;;;;;;11.25;6.50;;;;;-146.67;77.65;75580.13;5082247;27;62186;-72
2023/12/09 04:40:12;;;;;;;;;8.00;5.50;;;;;-146.67;77.12;75546.19;5081414;27;62735;-72
2023/12/09 04:42:38;;;;;;;;;6.25;4.00;;;;;-146.67;76.39;75530.22;5081710;27;61894;-71
2023/12/09 04:45:05;;;;;;;;;6.00;3.00;;;;;-146.67;76.47;75526.22;5086579;27;61962;-72
2023/12/09 04:47:30;;;;;;;;;7.00;4.50;;;;;-146.67;76.18;75514.22;5102426;27;61766;-72
2023/12/09 04:49:56;;;;;;;;;7.25;6.00;;;;;-146.67;76.28;75500.25;5111058;27;62058;-71
2023/12/09 04:52:21;;;;;;;;;3.25;3.00;;;;;-146.67;76.13;75500.25;5122696;27;62070;-71
2023/12/09 04:54:47;;;;;;;;;6.00;3.25;;;;;-146.67;76.21;75496.25;5122802;27;62309;-72
2023/12/09 04:57:12;;;;;;;;;8.00;5.50;;;;;-146.67;76.32;75498.25;5125758;27;62400;-72
2023/12/09 04:59:38;;;;;;;;;1.00;1.00;;;;;-146.67;76.36;75498.25;5125805;27;62010;-72
2023/12/09 05:02:03;;;;;;;;;7.25;3.00;;;;;-146.67;76.66;75490.28;5126058;27;62115;-72
2023/12/09 05:04:29;;;;;;;;;6.25;3.00;;;;;-146.67;76.22;75484.28;5125722;27;61776;-71
2023/12/09 05:06:54;;;;;;;;;7.00;5.00;;;;;-146.67;76.31;75482.28;5126470;27;61883;-71
2023/12/09 05:09:22;;;;;;;;;6.00;3.00;;;;;-146.67;76.43;75464.31;5114394;27;62020;-72
2023/12/09 05:11:47;;;;;;;;;3.25;2.50;;;;;-146.67;75.93;75458.31;5104997;27;62170;-72
2023/12/09 05:14:13;;;;;;;;;8.00;2.00;;;;;-146.67;76.62;75462.31;5104411;27;62144;-71
2023/12/09 05:16:38;;;;;;;;;6.50;4.75;;;;;-146.67;76.52;75456.31;5102569;27;62247;-72
2023/12/09 05:19:05;;;;;;;;;2.50;2.50;;;;;-146.67;76.92;75444.34;5094083;27;61919;-72
2023/12/09 05:21:30;;;;;;;;;4.00;1.75;;;;;-146.67;76.87;75446.34;5092706;27;62328;-72
2023/12/09 05:23:56;;;;;;;;;2.75;2.75;;;;;-146.67;76.98;75446.34;5104257;27;61876;-72
2023/12/09 05:26:26;;;;;;;;;1.50;1.00;;;;;-146.67;77.53;75448.34;5104769;27;62015;-71
2023/12/09 05:28:53;;;;;;;;;3.00;1.75;;;;;-146.67;77.82;75434.34;5102632;27;63684;-71
2023/12/09 05:31:18;;;;;;;;;4.00;2.75;;;;;-146.67;78.00;75442.34;5105221;27;61774;-71
2023/12/09 05:33:43;;;;;;;;;4.75;2.50;;;;;-146.67;78.41;75428.38;5104508;27;61751;-71
2023/12/09 05:36:09;;;;;;;;;4.50;2.00;;;;;-146.67;78.07;75410.41;5105353;27;61991;-71
2023/12/09 05:38:35;;;;;;;;;6.25;2.25;;;;;-146.67;78.14;75426.38;5102847;27;63673;-72
2023/12/09 05:41:01;;;;;;;;;1.25;0.75;;;;;-146.67;78.33;75422.38;5104621;27;62424;-71
2023/12/09 05:43:31;;;;;;;;;6.00;2.00;;;;;-146.67;79.40;75434.34;5104852;27;61790;-71
2023/12/09 05:45:59;;;;;;;;;2.25;2.00;;;;;-146.67;80.65;75436.34;5104759;27;61957;-71
2023/12/09 05:48:24;;;;;;;;;4.00;2.00;;;;;-146.67;80.45;75428.38;5101093;27;62171;-72
2023/12/09 05:50:49;;;;;;;;;4.25;1.75;;;;;-146.67;80.97;75432.34;5082488;27;62032;-71
2023/12/09 05:53:15;;;;;;;;;7.00;4.00;;;;;-146.67;81.28;75422.38;5084328;27;61850;-71
2023/12/09 05:55:40;;;;;;;;;4.00;3.00;;;;;-146.67;81.04;75412.38;5082728;27;61814;-71
2023/12/09 05:58:06;;;;;;;;;2.00;2.00;;;;;-146.67;80.94;75402.41;5089253;27;61859;-72
2023/12/09 06:00:32;;;;;;;;;4.00;2.00;;;;;-146.67;82.18;75416.38;5104595;27;61824;-71
2023/12/09 06:02:58;;;;;;;;;1.50;1.00;;;;;-146.67;82.74;75420.38;5102853;27;61786;-71
2023/12/09 06:05:24;;;;;;;;;4.25;2.00;;;;;-146.67;83.18;75416.38;5104869;27;62019;-72
2023/12/09 06:07:49;;;;;;;;;1.75;1.50;;;;;-146.67;82.86;75404.41;5114632;27;63652;-71
2023/12/09 06:10:15;;;;;;;;;2.50;2.50;;;;;-146.67;82.67;75376.44;5123490;27;61868;-71
2023/12/09 06:12:40;;;;;;;;;2.75;1.75;;;;;-146.67;82.23;75368.47;5104205;27;62360;-69
2023/12/09 06:15:06;;;;;;;;;1.75;1.75;;;;;-146.67;82.00;75360.47;5103337;27;61757;-71
2023/12/09 06:17:32;;;;;;;;;3.25;2.25;;;;;-146.67;81.42;75352.47;5091366;27;61957;-72
2023/12/09 06:19:58;;;;;;;;;5.75;4.00;;;;;-146.67;80.97;75352.47;5083353;27;61828;-71
2023/12/09 06:22:23;;;;;;;;;3.00;3.00;;;;;-146.67;81.20;75340.50;5086436;27;62009;-72
2023/12/09 06:24:48;;;;;;;;;7.25;3.00;;;;;-146.67;81.68;75342.50;5102900;27;61859;-72
2023/12/09 06:27:14;;;;;;;;;3.00;3.00;;;;;-146.67;81.96;75336.50;5103643;27;61811;-71
2023/12/09 06:29:39;;;;;;;;;6.00;3.00;;;;;-146.67;81.90;75326.53;5102493;27;62156;-71
2023/12/09 06:32:05;;;;;;;;;7.00;2.50;;;;;-146.67;81.89;75316.53;5103831;27;61817;-71
2023/12/09 06:34:30;;;;;;;;;2.25;2.00;;;;;-146.67;81.76;75316.53;5104497;27;61849;-72
2023/12/09 06:36:56;;;;;;;;;4.00;3.00;;;;;-146.67;81.55;75304.56;5109135;27;61993;-72
2023/12/09 06:39:21;;;;;;;;;2.00;2.00;;;;;-146.67;81.87;75300.56;5132929;27;61929;-71
2023/12/09 06:41:48;;;;;;;;;2.00;2.00;;;;;-146.67;81.71;75294.56;5122976;27;61965;-71
2023/12/09 06:44:14;;;;;;;;;1.25;1.00;;;;;-146.67;81.88;75284.59;5124880;27;61893;-71
2023/12/09 06:46:40;;;;;;;;;2.75;2.75;;;;;-146.67;81.94;75278.59;5103651;27;62041;-72
2023/12/09 06:49:05;;;;;;;;;3.00;1.25;;;;;-146.67;82.11;75272.59;5094797;27;62123;-71
2023/12/09 06:51:31;;;;;;;;;2.00;2.00;;;;;-146.67;83.10;75306.56;5081986;28;61918;-71
2023/12/09 06:53:56;;;;;;;;;2.00;1.00;;;;;-146.67;84.08;75312.53;5082044;28;61739;-72
2023/12/09 06:56:23;;;;;;;;;3.00;3.00;;;;;-146.67;83.10;75284.59;5082797;27;61775;-72
2023/12/09 06:58:49;;;;;;;;;3.50;2.00;;;;;-146.67;82.69;75270.63;5083203;27;61813;-72
2023/12/09 07:01:25;;;;;;;;;2.50;1.50;;;;;-146.67;82.81;75260.63;5082831;27;61971;-72
2023/12/09 07:03:50;;;;;;;;;2.25;2.00;;;;;-146.67;82.57;75250.66;5083050;27;61812;-71
2023/12/09 07:06:20;;;;;;;;;1.00;1.00;;;;;-146.67;83.00;75252.66;5082732;27;61820;-72
2023/12/09 07:08:45;;;;;;;;;0.25;0.25;;;;;-146.67;82.91;75248.66;5083036;27;61672;-72
2023/12/09 07:11:11;;;;;;;;;3.75;2.25;;;;;-146.67;83.16;75242.66;5082808;27;62041;-72
2023/12/09 07:13:38;;;;;;;;;1.00;1.00;;;;;-146.67;83.04;75234.66;5087786;28;61897;-71
2023/12/09 07:16:04;;;;;;;;;3.00;1.50;;;;;-146.67;82.87;75226.69;5080338;27;63772;-73
2023/12/09 07:18:29;;;;;;;;;2.00;0.25;;;;;-146.67;83.24;75220.69;5081866;28;61909;-72
2023/12/09 07:20:55;;;;;;;;;2.50;1.00;;;;;-146.67;83.30;75220.69;5082493;27;61776;-72
2023/12/09 07:23:20;;;;;;;;;2.50;2.50;;;;;-146.67;83.18;75216.69;5084669;28;61765;-73
2023/12/09 07:25:46;;;;;;;;;2.00;1.00;;;;;-146.67;83.48;75218.69;5082266;27;62950;-73
2023/12/09 07:28:11;;;;;;;;;1.00;1.00;;;;;-146.67;82.82;75226.69;5081004;28;62065;-73
2023/12/09 07:30:36;;;;;;;;;2.25;2.00;;;;;-146.67;83.02;75228.69;5082525;27;61767;-73
2023/12/09 07:33:02;;;;;;;;;2.50;0.00;;;;;-146.67;83.64;75230.69;5081679;27;62044;-73
2023/12/09 07:35:28;;;;;;;;;1.25;1.00;;;;;-146.67;83.58;75232.69;5082270;28;63074;-73
2023/12/09 07:37:53;;;;;;;;;2.00;0.75;;;;;-146.67;83.96;75228.69;5096262;27;62143;-72
2023/12/09 07:40:18;;;;;;;;;2.00;1.00;;;;;-146.67;84.31;75216.69;5102780;27;61913;-73
2023/12/09 07:42:44;;;;;;;;;0.50;0.50;;;;;-146.67;84.33;75204.72;5101131;27;61945;-73
2023/12/09 07:45:09;;;;;;;;;0.00;0.00;;;;;-146.67;84.42;75192.75;5101660;27;62966;-72
2023/12/09 07:47:35;;;;;;;;;1.00;1.00;;;;;-146.67;84.12;75184.75;5102935;27;61776;-72
2023/12/09 07:50:00;;;;;;;;;1.50;1.00;;;;;-146.67;84.09;75178.75;5101250;27;61941;-72
2023/12/09 07:52:26;;;;;;;;;1.75;1.00;;;;;-146.67;83.90;75170.78;5102403;27;61813;-72
2023/12/09 07:54:51;;;;;;;;;2.75;1.50;;;;;-146.67;84.29;75170.78;5100137;27;63514;-72
2023/12/09 07:57:17;;;;;;;;;1.75;1.75;;;;;-146.67;85.21;75164.78;5100364;27;61973;-72
2023/12/09 07:59:42;;;;;;;;;1.25;1.25;;;;;-146.67;85.90;75154.78;5101973;27;62048;-72
2023/12/09 08:02:08;;;;;;;;;1.75;1.00;;;;;-146.67;85.86;75150.81;5108445;27;62171;-72
2023/12/09 08:04:33;;;;;;;;;2.00;1.00;;;;;-146.67;86.76;75138.81;5108639;27;61833;-73
2023/12/09 08:06:59;;;;;;;;;2.00;1.00;;;;;-146.67;86.52;75134.81;5111246;27;61842;-72
2023/12/09 08:09:24;;;;;;;;;1.50;0.25;;;;;-146.67;87.09;75124.84;5111089;27;62058;-72
2023/12/09 08:11:50;;;;;;;;;1.75;1.00;;;;;-146.67;91.28;75110.88;5103421;27;62453;-72
2023/12/09 08:14:15;;;;;;;;;0.00;0.00;;;;;-146.67;91.75;75108.88;5100952;27;61798;-72
2023/12/09 08:16:40;;;;;;;;;2.50;0.50;;;;;-146.67;88.54;75102.88;5108216;27;63171;-72
2023/12/09 08:19:06;;;;;;;;;1.00;1.00;;;;;-146.67;88.43;75102.88;5106527;27;61844;-72
2023/12/09 08:21:36;;;;;;;;;0.00;0.00;;;;;-146.67;88.65;75100.88;5101091;27;61930;-72
2023/12/09 08:24:01;;;;;;;;;0.50;0.00;;;;;-146.67;88.52;75084.91;5100538;27;63776;-72
2023/12/09 08:26:27;;;;;;;;;1.00;0.75;;;;;-146.67;88.14;75066.94;5108697;27;62085;-71
2023/12/09 08:28:53;;;;;;;;;0.50;0.50;;;;;-146.67;88.83;75040.97;5121041;27;62210;-72
2023/12/09 08:31:18;;;;;;;;;2.00;0.00;;;;;-146.67;87.73;75042.97;5123644;27;61821;-72
2023/12/09 08:33:43;;;;;;;;;2.00;1.00;;;;;-146.67;88.08;75033.00;5104089;27;64788;-72
2023/12/09 08:36:09;;;;;;;;;1.75;0.75;;;;;-146.67;88.78;75023.00;5105995;27;62190;-72
2023/12/09 08:38:35;;;;;;;;;1.25;1.00;;;;;-146.67;88.58;75031.00;5104602;27;61793;-72
2023/12/09 08:41:00;;;;;;;;;0.00;0.00;;;;;-146.67;90.75;75027.00;5104757;27;62067;-72
2023/12/09 08:43:25;;;;;;;;;2.00;1.00;;;;;-146.67;92.13;75023.00;5104736;27;62034;-72
2023/12/09 08:45:51;;;;;;;;;1.00;1.00;;;;;-146.67;92.92;75027.00;5105535;27;61929;-72
2023/12/09 08:48:17;;;;;;;;;2.00;0.00;;;;;-146.67;95.27;75009.03;5106123;27;61945;-73
2023/12/09 08:50:43;;;;;;;;;1.00;1.00;;;;;-146.67;92.79;74987.06;5103936;27;62150;-73
2023/12/09 08:53:08;;;;;;;;;2.00;1.00;;;;;-146.67;92.31;74955.13;5105367;27;61867;-72
2023/12/09 08:55:34;;;;;;;;;1.25;1.00;;;;;-146.67;92.88;74963.13;5112084;27;62208;-73
2023/12/09 08:57:59;;;;;;;;;0.00;0.00;;;;;-146.67;92.69;74951.13;5104010;27;61740;-73
2023/12/09 09:00:26;;;;;;;;;2.00;0.00;;;;;-146.67;92.59;74959.13;5106652;27;61773;-73
2023/12/09 09:02:55;;;;;;;;;0.00;0.00;;;;;-146.67;95.01;74967.09;5104668;27;62076;-73
2023/12/09 09:05:22;;;;;;;;;1.50;0.00;;;;;-146.67;98.07;74919.19;5104224;27;61856;-72
2023/12/09 09:07:47;;;;;;;;;0.25;0.25;;;;;-146.67;96.47;74943.16;5104036;27;61893;-73
2023/12/09 09:10:14;;;;;;;;;0.00;0.00;;;;;-146.67;100.00;74951.13;5115929;27;61980;-73
2023/12/09 09:12:39;;;;;;;;;0.00;0.00;;;;;-146.67;100.00;74939.16;5125182;27;62081;-73
2023/12/09 09:15:05;;;;;;;;;1.75;1.00;;;;;-146.67;97.47;74931.16;5110289;27;61853;-73
2023/12/09 09:17:30;;;;;;;;;0.50;0.50;;;;;-146.67;97.22;74931.16;5085086;27;61953;-73
2023/12/09 09:19:56;;;;;;;;;0.00;0.00;;;;;-146.67;100.00;74959.13;5084747;27;61798;-73
2023/12/09 09:22:21;;;;;;;;;0.00;0.00;;;;;-146.67;100.00;74939.16;5084215;27;62769;-73
2023/12/09 09:24:47;;;;;;;;;1.00;0.00;;;;;-146.67;100.00;74951.13;5084855;27;61711;-72
2023/12/09 09:27:13;;;;;;;;;0.50;0.00;;;;;-146.67;100.00;74963.13;5102965;27;61884;-72
2023/12/09 09:29:39;;;;;;;;;0.75;0.00;;;;;-146.67;100.00;74955.13;5107294;27;62166;-72
2023/12/09 09:32:05;;;;;;;;;1.00;0.00;;;;;-146.67;100.00;74967.09;5119965;27;64401;-72
2023/12/09 09:34:30;;;;;;;;;0.00;0.00;;;;;-146.67;100.00;74951.13;5115260;27;62326;-72
2023/12/09 09:36:56;;;;;;;;;0.00;0.00;;;;;-146.67;100.00;74909.19;5113705;27;61892;-72
2023/12/09 09:39:21;;;;;;;;;0.00;0.00;;;;;-146.67;100.00;74903.22;5113635;27;62116;-72
2023/12/09 09:42:09;;;;;;;;;0.00;0.00;;;;;-146.67;100.00;74927.16;5112427;27;61871;-71
2023/12/09 09:44:43;;;;;;;;;0.00;0.00;;;;;-146.67;100.00;74921.19;5097152;27;62571;-72
2023/12/09 09:47:10;;;;;;;;;0.00;0.00;;;;;-146.67;100.00;74899.22;5104291;27;62020;-72
2023/12/09 09:49:38;;;;;;;;;0.00;0.00;;;;;-146.67;99.83;74883.25;5102867;27;61831;-72
2023/12/09 09:52:09;;;;;;;;;0.00;0.00;;;;;-146.67;99.52;74877.25;5104609;27;62855;-72
2023/12/09 09:54:36;;;;;;;;;0.00;0.00;;;;;-146.67;98.96;74869.28;5099675;27;61939;-72
2023/12/09 09:57:03;;;;;;;;;0.00;0.00;;;;;-146.67;97.76;74867.28;5104007;27;61830;-72
2023/12/09 09:59:30;;;;;;;;;0.00;0.00;;;;;-146.67;96.74;74853.28;5104461;27;61975;-72
2023/12/09 10:01:56;;;;;;;;;0.00;0.00;;;;;-146.67;97.28;74845.31;5102026;27;63703;-72
2023/12/09 10:04:21;;;;;;;;;0.00;0.00;;;;;-146.67;95.99;74799.38;5103748;27;62371;-72
2023/12/09 10:06:48;;;;;;;;;0.00;0.00;;;;;-146.67;100.00;74795.41;5111113;27;61986;-72
2023/12/09 10:09:13;;;;;;;;;0.00;0.00;;;;;-146.67;100.00;74801.38;5101140;27;61793;-73
2023/12/09 10:11:39;;;;;;;;;1.25;0.25;;;;;-146.67;100.00;74789.41;5101770;27;63970;-73
2023/12/09 10:14:05;;;;;;;;;0.00;0.00;;;;;-146.67;100.00;74797.38;5103757;27;62535;-73
2023/12/09 10:16:30;;;;;;;;;0.00;0.00;;;;;-146.67;100.00;74813.38;5102427;27;61864;-74
2023/12/09 10:18:56;;;;;;;;;0.00;0.00;;;;;-146.67;100.00;74807.38;5104463;27;62160;-74
2023/12/09 10:21:22;;;;;;;;;1.00;1.00;;;;;-146.67;100.00;74821.34;5119499;27;63629;-72
2023/12/09 10:23:47;;;;;;;;;0.00;0.00;;;;;-146.67;99.62;74813.38;5101417;27;62059;-72
2023/12/09 10:26:14;;;;;;;;;5.50;3.25;;;;;-146.67;100.00;74803.38;5098938;27;61741;-72
2023/12/09 10:28:40;;;;;;;;;1.75;0.75;;;;;-146.67;99.88;74763.44;5101969;27;62234;-72
2023/12/09 10:31:07;;;;;;;;;0.75;0.75;;;;;-146.67;98.21;74723.50;5101079;27;63541;-72
2023/12/09 10:33:34;;;;;;;;;0.00;0.00;;;;;-146.67;96.29;74749.47;5103363;27;62004;-72
2023/12/09 10:36:00;;;;;;;;;0.00;0.00;;;;;-146.67;97.05;74757.47;5101741;27;61927;-72
2023/12/09 10:38:26;;;;;;;;;0.00;0.00;;;;;-146.67;96.76;74725.50;5101632;27;61865;-72
2023/12/09 10:40:55;;;;;;;;;1.50;1.50;;;;;-146.67;96.50;74733.50;5102166;27;62817;-72
2023/12/09 10:43:20;;;;;;;;;0.00;0.00;;;;;-146.67;96.78;74731.50;5101741;27;61884;-72
2023/12/09 10:45:47;;;;;;;;;0.00;0.00;;;;;-146.67;95.78;74693.56;5099612;27;62408;-72
2023/12/09 10:48:12;;;;;;;;;0.00;0.00;;;;;-146.67;96.10;74681.59;5103313;27;61821;-72
2023/12/09 10:50:38;;;;;;;;;0.00;0.00;;;;;-146.67;95.16;74697.56;5101973;27;63107;-71
2023/12/09 10:53:04;;;;;;;;;1.00;0.00;;;;;-146.67;97.10;74683.59;5102701;27;61907;-72
2023/12/09 10:55:30;;;;;;;;;0.50;0.50;;;;;-146.67;97.02;74669.63;5102282;27;62122;-72
2023/12/09 10:57:57;;;;;;;;;1.00;0.00;;;;;-146.67;95.05;74653.63;5113137;27;62165;-73
2023/12/09 11:00:24;;;;;;;;;0.00;0.00;;;;;-146.67;95.09;74651.66;5112713;27;63443;-72
2023/12/09 11:02:52;;;;;;;;;0.25;0.00;;;;;-146.67;95.37;74661.63;5112404;27;61994;-73
2023/12/09 11:05:19;;;;;;;;;0.00;0.00;;;;;-146.67;95.46;74661.63;5110154;27;61865;-73
2023/12/09 11:07:47;;;;;;;;;0.00;0.00;;;;;-146.67;96.41;74637.66;5112428;27;61895;-73
2023/12/09 11:10:13;;;;;;;;;1.00;0.00;;;;;-146.67;96.52;74617.69;5106594;27;63786;-73
2023/12/09 11:12:38;;;;;;;;;2.00;0.00;;;;;-146.67;96.67;74631.69;5113209;27;62216;-71